Briefing drone pour Sainte-sigolene

Rechercher une autre localisation

Conditions de vol :


Nous sommes le : Dimanche 25 juillet 2021
Il est 16:43 UTC (18:43 LT)

Lever de soleil : 03:54 UTC (05:54 LT)
Coucher de soleil : 19:45 UTC (21:45 LT)

Météo

L'essentiel des conditions de vol

VIGILANCE MÉTÉO FRANCE - Haute-Loire (43)
Pas de vigilances particulieres
METAR de LFMH
LFMH 251630Z AUTO 29008KT 250V340 CAVOK 26/13 Q1011

Date d'émission: 25/07/2021
Heure d'émission: 16:30 UTC
Vent: 290° (variable du 250° au 340°) pour 8 KT (15 km/h)
Visibilité horizontale: > 10 km
Plafond : Plafond et visibilité OK (CAVOK)
Température: 26 °C
Point de rosée: 13 °C
Humidité: 45%
Pression (QNH): 1011 hPa
TAF de LFMH
LFMH 161901Z 1619/1712 CNL

Conditions prévues :

Heure d'émission : Bulletin éffectué le 16 à 19:00 UTC
Prévision : Valide du 16 a 19:00 UTC au 17 a 12:00 UTC
Nuages : à 0ft (0 m)
WEBCAM POUR SAINTE-SIGOLENE

Réglementation

Voler en sécurité

CARTES AERONAUTIQUE 1/500.000
CARTES VAC (LFMH)
SUP AIP




Chargement des AIP...
NOTAM (SAINTE-SIGOLENE + Terrain à proximité / FIR )




Chargement des NOTAMS...
CONTACT PREFECTURE 43


Avertissement : Les données mises à disposition sont indicatives. Oxygène Drone ne pourra être tenu responsable de dégâts causés aux biens et aux personnes.